Time;durP1;ratioP1;P1;durP2;ratioP2;P2;SDS_P1;SDS_P2;PMS_P1;PMS_P2;Temp;Humidity;BMP_temperature;BMP_pressure;BME280_temperature;BME280_humidity;BME280_pressure;Samples;Min_cycle;Max_cycle;Signal;HPM_P1;HPM_P2
2022/03/29 00:00:01;;;;;;;5.72;5.03;;;19.40;38.70;;;;;;6216106;23;20542;-66
2022/03/29 00:02:28;;;;;;;6.15;5.55;;;19.40;38.70;;;;;;6189960;23;20178;-65
2022/03/29 00:04:57;;;;;;;5.25;4.82;;;19.40;38.80;;;;;;6189520;23;20163;-66
2022/03/29 00:07:24;;;;;;;5.78;5.28;;;19.40;38.70;;;;;;6188782;23;20175;-65
2022/03/29 00:09:51;;;;;;;5.85;5.25;;;19.30;38.70;;;;;;6188659;23;20178;-65
2022/03/29 00:12:20;;;;;;;5.65;5.15;;;19.30;38.70;;;;;;6188799;23;20254;-65
2022/03/29 00:14:47;;;;;;;5.78;5.18;;;19.30;38.70;;;;;;6215471;23;20180;-65
2022/03/29 00:17:14;;;;;;;5.95;5.40;;;19.30;38.80;;;;;;6188954;23;20175;-65
2022/03/29 00:19:41;;;;;;;6.13;5.53;;;19.30;38.80;;;;;;6215853;23;20195;-65
2022/03/29 00:22:08;;;;;;;6.07;5.47;;;19.30;38.90;;;;;;6188888;23;20176;-65
2022/03/29 00:24:35;;;;;;;6.60;5.43;;;19.20;38.70;;;;;;6188899;23;20241;-65
2022/03/29 00:27:02;;;;;;;6.15;5.13;;;19.20;38.80;;;;;;6188831;23;20640;-64
2022/03/29 00:29:31;;;;;;;6.00;5.35;;;19.20;38.80;;;;;;6189624;23;20259;-64
2022/03/29 00:31:58;;;;;;;6.75;6.05;;;19.20;38.80;;;;;;6188746;23;20644;-64
2022/03/29 00:34:25;;;;;;;5.43;4.93;;;19.20;38.80;;;;;;6189340;23;20188;-64
2022/03/29 00:36:52;;;;;;;5.60;5.10;;;19.20;38.90;;;;;;6190824;23;20172;-64
2022/03/29 00:39:19;;;;;;;5.68;5.10;;;19.20;38.90;;;;;;6190854;23;20560;-64
2022/03/29 00:41:47;;;;;;;6.07;5.47;;;19.20;38.90;;;;;;6190820;23;20179;-64
2022/03/29 00:44:14;;;;;;;5.47;4.97;;;19.20;39.00;;;;;;6190474;23;20270;-64
2022/03/29 00:46:43;;;;;;;5.82;4.95;;;19.20;39.00;;;;;;6190718;23;20175;-65
2022/03/29 00:49:11;;;;;;;6.32;5.38;;;19.20;39.00;;;;;;6217176;23;20189;-64
2022/03/29 00:51:38;;;;;;;5.82;5.32;;;19.10;39.00;;;;;;6190612;23;20230;-64
2022/03/29 00:54:06;;;;;;;5.65;5.15;;;19.10;39.00;;;;;;6190427;23;20286;-65
2022/03/29 00:56:58;;;;;;;6.00;5.40;;;19.10;39.00;;;;;;6217245;23;20167;-65
2022/03/29 00:59:25;;;;;;;5.90;5.30;;;19.10;39.00;;;;;;6190550;23;20171;-64
2022/03/29 01:01:54;;;;;;;6.00;5.50;;;19.10;39.00;;;;;;6191214;23;20186;-64
2022/03/29 01:04:21;;;;;;;6.53;5.90;;;19.00;39.00;;;;;;6190912;23;20211;-64
2022/03/29 01:06:48;;;;;;;6.00;5.50;;;19.00;39.00;;;;;;6190637;23;20255;-64
2022/03/29 01:09:15;;;;;;;5.80;5.30;;;19.00;39.10;;;;;;6216953;23;20242;-64
2022/03/29 01:11:42;;;;;;;6.05;5.53;;;19.00;39.00;;;;;;6190649;23;20586;-64
2022/03/29 01:14:09;;;;;;;6.07;5.50;;;19.00;39.00;;;;;;6190203;23;20258;-64
2022/03/29 01:19:22;;;;;;;6.25;5.47;;;19.00;39.00;;;;;;6218397;23;20210;-64
2022/03/29 01:21:56;;;;;;;5.50;5.00;;;19.00;39.00;;;;;;6191588;23;20182;-64
2022/03/29 01:24:25;;;;;;;6.38;5.68;;;19.00;39.10;;;;;;6190580;23;20269;-64
2022/03/29 01:26:52;;;;;;;5.93;5.43;;;19.00;39.00;;;;;;6190348;23;20622;-64
2022/03/29 01:29:20;;;;;;;6.28;5.68;;;19.00;39.30;;;;;;6216606;23;20174;-64
2022/03/29 01:31:47;;;;;;;6.07;5.57;;;18.90;39.20;;;;;;6190129;23;20202;-64
2022/03/29 01:34:14;;;;;;;6.10;5.50;;;18.90;39.20;;;;;;6189934;23;20214;-65
2022/03/29 01:36:41;;;;;;;5.22;4.72;;;18.90;39.10;;;;;;6190030;23;20187;-64
2022/03/29 01:39:10;;;;;;;5.80;5.30;;;18.90;39.30;;;;;;6216989;23;20483;-64
2022/03/29 01:41:38;;;;;;;6.32;5.45;;;18.90;39.20;;;;;;6190109;23;20258;-64
2022/03/29 01:44:06;;;;;;;6.43;5.32;;;18.90;39.20;;;;;;6216813;23;20254;-64
2022/03/29 01:46:33;;;;;;;6.03;5.43;;;18.90;39.20;;;;;;6189929;23;20683;-64
2022/03/29 01:49:00;;;;;;;6.13;5.57;;;18.80;39.10;;;;;;6217239;23;20165;-64
2022/03/29 01:51:27;;;;;;;7.10;5.50;;;18.80;39.10;;;;;;6190232;23;20270;-66
2022/03/29 01:53:55;;;;;;;5.88;5.38;;;18.80;39.20;;;;;;6190171;23;20222;-65
2022/03/29 01:56:26;;;;;;;5.80;5.28;;;18.80;39.20;;;;;;6216520;23;20262;-64
2022/03/29 01:58:54;;;;;;;6.97;6.28;;;18.80;39.20;;;;;;6190040;23;20164;-65
2022/03/29 02:01:20;;;;;;;6.07;5.57;;;18.80;39.20;;;;;;6190040;23;20172;-64
2022/03/29 02:03:48;;;;;;;5.93;5.38;;;18.80;39.20;;;;;;6190638;23;20195;-64
2022/03/29 02:06:15;;;;;;;7.05;5.30;;;18.80;39.20;;;;;;6190768;23;20250;-64
2022/03/29 02:08:43;;;;;;;5.85;5.32;;;18.80;39.30;;;;;;6217103;23;20218;-65
2022/03/29 02:11:10;;;;;;;5.88;5.38;;;18.80;39.30;;;;;;6189624;23;20179;-64
2022/03/29 02:13:39;;;;;;;6.10;5.50;;;18.80;39.30;;;;;;6189732;23;20196;-64
2022/03/29 02:16:06;;;;;;;6.57;5.82;;;18.80;39.20;;;;;;6216062;23;20197;-64
2022/03/29 02:18:33;;;;;;;6.90;5.85;;;18.80;39.20;;;;;;6189621;23;20198;-64
2022/03/29 02:21:00;;;;;;;6.32;5.72;;;18.70;39.30;;;;;;6189769;23;20254;-64
2022/03/29 02:23:27;;;;;;;6.00;5.40;;;18.70;39.20;;;;;;6190155;23;20199;-65
2022/03/29 02:25:54;;;;;;;6.05;5.45;;;18.70;39.50;;;;;;6189785;23;20217;-65
2022/03/29 02:28:21;;;;;;;6.25;5.65;;;18.70;39.30;;;;;;6216675;23;20175;-65
2022/03/29 02:30:50;;;;;;;6.05;5.55;;;18.70;39.40;;;;;;6189634;23;20195;-65
2022/03/29 02:33:17;;;;;;;6.28;5.65;;;18.70;39.40;;;;;;6216441;23;20263;-65
2022/03/29 02:35:44;;;;;;;6.60;5.90;;;18.70;39.40;;;;;;6189893;23;20199;-64
2022/03/29 02:38:11;;;;;;;6.53;6.00;;;18.70;39.40;;;;;;6198140;22;20705;-70
2022/03/29 02:40:39;;;;;;;6.28;5.43;;;18.60;39.30;;;;;;6219796;23;20217;-71
2022/03/29 02:43:06;;;;;;;6.15;5.57;;;18.70;39.40;;;;;;6219913;23;20166;-70
2022/03/29 02:45:33;;;;;;;6.65;5.93;;;18.60;39.40;;;;;;6223970;23;20166;-71
2022/03/29 02:48:02;;;;;;;7.65;6.07;;;18.60;39.40;;;;;;6206804;23;20195;-71
2022/03/29 02:50:29;;;;;;;6.68;6.10;;;18.70;39.40;;;;;;6190197;23;20178;-71
2022/03/29 02:52:57;;;;;;;6.75;5.45;;;18.70;39.50;;;;;;6189587;23;20190;-71
2022/03/29 02:55:29;;;;;;;6.93;6.00;;;18.60;39.30;;;;;;6189760;23;20223;-71
2022/03/29 02:57:56;;;;;;;6.05;5.47;;;18.60;39.40;;;;;;6189205;23;20286;-70
2022/03/29 03:00:24;;;;;;;5.65;5.15;;;18.60;39.40;;;;;;6189426;23;20167;-71
2022/03/29 03:02:51;;;;;;;6.28;5.78;;;18.60;39.40;;;;;;6189458;23;20569;-70
2022/03/29 03:05:20;;;;;;;6.20;5.70;;;18.60;39.50;;;;;;6189421;23;20623;-71
2022/03/29 03:07:47;;;;;;;7.32;6.07;;;18.60;39.50;;;;;;6189324;23;20568;-71
2022/03/29 03:10:15;;;;;;;6.30;5.63;;;18.50;39.40;;;;;;6189709;23;20172;-70
2022/03/29 03:12:42;;;;;;;6.13;5.63;;;18.50;39.20;;;;;;6189728;23;20239;-71
2022/03/29 03:15:11;;;;;;;6.50;5.85;;;18.60;39.40;;;;;;6189664;23;20604;-71
2022/03/29 03:17:38;;;;;;;6.43;5.93;;;18.50;39.30;;;;;;6189673;23;20287;-71
2022/03/29 03:20:06;;;;;;;7.22;6.13;;;18.60;39.40;;;;;;6189590;23;20239;-71
2022/03/29 03:22:36;;;;;;;6.63;6.03;;;18.50;39.40;;;;;;6189810;23;20171;-71
2022/03/29 03:25:03;;;;;;;6.38;5.72;;;18.50;39.40;;;;;;6216376;23;20175;-71
2022/03/29 03:27:30;;;;;;;6.20;5.60;;;18.50;39.40;;;;;;6189219;23;20202;-71
2022/03/29 03:29:57;;;;;;;6.22;5.63;;;18.50;39.60;;;;;;6189312;23;20178;-70
2022/03/29 03:32:24;;;;;;;6.05;5.55;;;18.50;39.40;;;;;;6189571;23;20175;-71
2022/03/29 03:34:51;;;;;;;6.07;5.57;;;18.50;39.50;;;;;;6189388;23;20461;-71
2022/03/29 03:37:19;;;;;;;6.90;6.35;;;18.50;39.50;;;;;;6215657;23;20265;-71
2022/03/29 03:39:48;;;;;;;6.68;6.07;;;18.50;39.60;;;;;;6189323;23;20160;-70
2022/03/29 03:42:15;;;;;;;6.97;5.80;;;18.50;39.50;;;;;;6189284;23;20226;-71
2022/03/29 03:44:42;;;;;;;6.13;5.60;;;18.50;39.60;;;;;;6189254;23;20262;-71
2022/03/29 03:47:09;;;;;;;6.85;5.93;;;18.50;39.50;;;;;;6189367;23;20190;-71
2022/03/29 03:49:37;;;;;;;7.25;5.68;;;18.50;39.50;;;;;;6190071;23;20250;-71
2022/03/29 03:52:04;;;;;;;6.68;6.07;;;18.50;39.40;;;;;;6189785;23;20223;-71
2022/03/29 03:54:31;;;;;;;6.70;6.00;;;18.50;39.50;;;;;;6190052;23;20176;-71
2022/03/29 03:57:00;;;;;;;6.10;5.57;;;18.50;39.40;;;;;;6189693;23;20230;-71
2022/03/29 03:59:26;;;;;;;6.40;5.80;;;18.50;39.40;;;;;;6189501;23;20172;-71
2022/03/29 04:01:54;;;;;;;6.10;5.60;;;18.50;39.40;;;;;;6189550;23;20199;-71
2022/03/29 04:04:21;;;;;;;6.18;5.65;;;18.50;39.40;;;;;;6189537;23;20172;-70
2022/03/29 04:06:48;;;;;;;6.65;6.05;;;18.50;39.50;;;;;;6189343;23;20174;-71
2022/03/29 04:09:15;;;;;;;6.22;5.63;;;18.50;39.50;;;;;;6190671;23;20241;-71
2022/03/29 04:11:42;;;;;;;6.38;5.78;;;18.50;39.40;;;;;;6192171;23;20182;-71
2022/03/29 04:14:11;;;;;;;6.28;5.70;;;18.50;39.40;;;;;;6218065;23;20164;-70
2022/03/29 04:16:38;;;;;;;6.20;5.63;;;18.50;39.40;;;;;;6190862;23;20206;-71
2022/03/29 04:19:05;;;;;;;6.38;5.78;;;18.50;39.40;;;;;;6190991;23;20172;-71
2022/03/29 04:21:32;;;;;;;6.50;5.90;;;18.50;39.50;;;;;;6191125;23;20641;-71
2022/03/29 04:23:59;;;;;;;6.18;5.57;;;18.50;39.40;;;;;;6191021;23;20226;-71
2022/03/29 04:26:29;;;;;;;6.38;5.88;;;18.50;39.40;;;;;;6217634;23;20159;-71
2022/03/29 04:28:57;;;;;;;7.57;6.15;;;18.50;39.50;;;;;;6190821;23;20207;-70
2022/03/29 04:31:25;;;;;;;5.93;5.43;;;18.50;39.30;;;;;;6218267;23;20174;-70
2022/03/29 04:33:52;;;;;;;6.68;6.07;;;18.50;39.40;;;;;;6191724;23;20206;-71
2022/03/29 04:36:19;;;;;;;6.88;6.18;;;18.50;40.00;;;;;;6191105;23;20223;-71
2022/03/29 04:38:46;;;;;;;6.60;6.00;;;18.50;39.10;;;;;;6190840;23;20197;-71
2022/03/29 04:41:13;;;;;;;6.78;6.10;;;18.50;39.10;;;;;;6207480;22;20209;-71
2022/03/29 04:43:40;;;;;;;7.03;6.32;;;18.50;39.10;;;;;;6247880;22;20194;-71
2022/03/29 04:46:08;;;;;;;6.88;6.18;;;18.50;39.10;;;;;;6196289;23;20196;-69
2022/03/29 04:48:36;;;;;;;7.47;6.68;;;18.60;39.30;;;;;;6162660;23;20199;-70
2022/03/29 04:51:03;;;;;;;7.03;6.05;;;18.60;39.80;;;;;;6162130;23;20235;-70
2022/03/29 04:53:30;;;;;;;7.10;5.90;;;18.60;39.10;;;;;;6161362;23;20520;-69
2022/03/29 04:55:57;;;;;;;7.35;6.53;;;18.60;39.10;;;;;;6188292;23;20181;-70
2022/03/29 04:58:24;;;;;;;7.82;6.20;;;18.60;39.60;;;;;;6161000;23;20218;-70
2022/03/29 05:00:51;;;;;;;7.63;6.25;;;18.60;39.30;;;;;;6161114;23;20172;-70
2022/03/29 05:03:18;;;;;;;7.10;6.43;;;18.60;39.40;;;;;;6161045;23;20590;-69
2022/03/29 05:05:47;;;;;;;6.88;6.18;;;18.60;39.40;;;;;;6161158;23;20173;-70
2022/03/29 05:08:14;;;;;;;6.95;5.75;;;18.60;39.20;;;;;;6161020;23;20544;-70
2022/03/29 05:10:40;;;;;;;6.55;5.95;;;18.60;39.80;;;;;;6161216;23;20207;-69
2022/03/29 05:13:09;;;;;;;7.18;6.05;;;18.60;39.70;;;;;;6160862;23;20172;-70
2022/03/29 05:15:36;;;;;;;7.30;6.60;;;18.60;40.10;;;;;;6161020;23;20176;-69
2022/03/29 05:18:03;;;;;;;7.05;6.20;;;18.60;39.90;;;;;;6187210;23;20270;-70
2022/03/29 05:20:30;;;;;;;6.82;5.97;;;18.60;39.60;;;;;;6160632;23;20184;-71
2022/03/29 05:23:00;;;;;;;6.50;5.88;;;18.60;39.50;;;;;;6160958;23;20176;-71
2022/03/29 05:25:27;;;;;;;6.47;5.88;;;18.60;39.50;;;;;;6160824;23;20176;-71
2022/03/29 05:27:54;;;;;;;6.90;6.20;;;18.60;39.60;;;;;;6160874;23;20279;-71
2022/03/29 05:30:21;;;;;;;6.25;5.65;;;18.70;39.50;;;;;;6160663;23;20176;-71
2022/03/29 05:32:50;;;;;;;6.53;5.93;;;18.60;39.50;;;;;;6160712;23;20255;-71
2022/03/29 05:35:17;;;;;;;6.75;6.05;;;18.70;39.50;;;;;;6160560;23;20179;-71
2022/03/29 05:37:44;;;;;;;7.13;5.57;;;18.60;39.40;;;;;;6160634;23;20246;-71
2022/03/29 05:40:13;;;;;;;9.13;5.53;;;18.70;39.30;;;;;;6160608;23;20200;-70
2022/03/29 05:42:40;;;;;;;5.90;5.40;;;18.70;39.40;;;;;;6160651;23;20180;-71
2022/03/29 05:45:09;;;;;;;6.85;6.18;;;18.70;39.30;;;;;;6160334;23;20172;-71
2022/03/29 05:50:28;;;;;;;6.57;5.80;;;18.70;39.00;;;;;;6245529;22;20265;-73
2022/03/29 05:52:55;;;;;;;6.50;5.90;;;18.70;39.00;;;;;;6222392;23;20244;-73
2022/03/29 05:55:24;;;;;;;6.13;5.63;;;18.80;38.80;;;;;;6221604;23;20175;-72
2022/03/29 05:57:52;;;;;;;6.97;6.38;;;18.80;39.00;;;;;;6204726;23;20206;-73
2022/03/29 06:00:21;;;;;;;7.03;5.78;;;18.80;38.80;;;;;;6191130;23;20254;-70
2022/03/29 06:02:50;;;;;;;6.28;5.70;;;18.80;38.80;;;;;;6193117;23;20339;-71
2022/03/29 06:05:17;;;;;;;8.50;6.40;;;18.80;38.80;;;;;;6191348;23;20202;-71
2022/03/29 06:07:45;;;;;;;6.32;5.72;;;18.80;38.70;;;;;;6191868;23;20270;-72
2022/03/29 06:10:12;;;;;;;7.38;6.32;;;18.90;38.80;;;;;;6192198;23;20603;-71
2022/03/29 06:12:41;;;;;;;6.75;6.15;;;18.80;38.50;;;;;;6192044;23;20266;-71
2022/03/29 06:15:09;;;;;;;6.40;5.80;;;18.90;38.50;;;;;;6191038;23;20178;-71
2022/03/29 06:17:36;;;;;;;6.90;6.20;;;18.90;38.50;;;;;;6190628;23;20211;-71
2022/03/29 06:20:06;;;;;;;7.25;6.53;;;18.90;38.70;;;;;;6210868;22;20198;-72
2022/03/29 06:22:34;;;;;;;7.20;6.55;;;18.90;38.50;;;;;;6247152;22;20162;-72
2022/03/29 06:25:01;;;;;;;6.82;6.22;;;19.00;38.40;;;;;;6220910;23;20177;-72
2022/03/29 06:27:28;;;;;;;6.93;6.30;;;19.00;39.00;;;;;;6209365;23;20188;-71
2022/03/29 06:29:57;;;;;;;6.45;5.85;;;19.00;38.30;;;;;;6217753;23;20198;-72
2022/03/29 06:32:24;;;;;;;6.75;6.05;;;19.00;38.20;;;;;;6190713;23;20225;-72
2022/03/29 06:34:51;;;;;;;7.20;6.47;;;19.00;38.20;;;;;;6190482;23;20175;-72
2022/03/29 06:37:18;;;;;;;6.93;6.10;;;19.10;38.20;;;;;;6190238;23;20282;-72
2022/03/29 06:39:45;;;;;;;6.32;5.72;;;19.10;38.30;;;;;;6190721;23;20178;-72
2022/03/29 06:42:12;;;;;;;7.03;6.32;;;19.10;38.20;;;;;;6190995;23;20182;-72
2022/03/29 06:44:39;;;;;;;6.75;6.15;;;19.20;38.00;;;;;;6190539;23;20182;-74
2022/03/29 06:47:10;;;;;;;7.68;6.50;;;19.20;38.00;;;;;;6190083;23;20197;-71
2022/03/29 06:49:37;;;;;;;6.70;6.10;;;19.20;37.90;;;;;;6190201;23;20681;-71
2022/03/29 06:52:05;;;;;;;7.00;6.40;;;19.30;37.90;;;;;;6216650;23;20599;-73
2022/03/29 06:54:32;;;;;;;6.88;6.28;;;19.30;38.00;;;;;;6190136;23;20627;-72
2022/03/29 06:57:01;;;;;;;6.82;6.18;;;19.30;37.70;;;;;;6190075;23;20281;-73
2022/03/29 06:59:28;;;;;;;6.63;5.85;;;19.40;37.90;;;;;;6195178;23;20171;-73
2022/03/29 07:01:54;;;;;;;7.55;6.53;;;19.40;37.90;;;;;;6199746;23;20513;-73
2022/03/29 07:04:24;;;;;;;7.40;6.72;;;19.40;37.60;;;;;;6191312;23;20194;-74
2022/03/29 07:06:51;;;;;;;7.25;6.43;;;19.40;37.50;;;;;;6190263;23;20195;-71
2022/03/29 07:12:03;;;;;;;6.82;6.13;;;19.50;37.40;;;;;;6190280;23;20678;-72
2022/03/29 07:14:30;;;;;;;7.40;6.70;;;19.50;37.40;;;;;;6216833;23;20568;-72
2022/03/29 07:16:57;;;;;;;7.57;6.70;;;19.50;37.50;;;;;;6189771;23;20199;-71
2022/03/29 07:19:27;;;;;;;7.32;6.63;;;19.60;37.40;;;;;;6189877;23;20260;-73
2022/03/29 07:21:54;;;;;;;7.82;6.35;;;19.60;37.20;;;;;;6189565;23;20176;-73
2022/03/29 07:24:21;;;;;;;7.13;6.45;;;19.60;37.10;;;;;;6190113;23;20225;-75
2022/03/29 07:26:49;;;;;;;6.72;6.13;;;19.60;37.10;;;;;;6190255;23;20171;-72
2022/03/29 07:29:16;;;;;;;7.45;6.70;;;19.70;37.10;;;;;;6189742;23;20250;-71
2022/03/29 07:31:43;;;;;;;7.97;7.13;;;19.70;37.00;;;;;;6190702;23;20199;-71
2022/03/29 07:34:10;;;;;;;7.45;6.35;;;19.70;36.90;;;;;;6189254;23;20168;-71
2022/03/29 07:36:39;;;;;;;7.93;7.03;;;19.80;36.90;;;;;;6189340;23;20258;-71
2022/03/29 07:39:06;;;;;;;7.80;7.05;;;19.80;36.70;;;;;;6189417;23;20222;-71
2022/03/29 07:41:33;;;;;;;7.57;6.80;;;19.90;36.60;;;;;;6189596;23;20171;-71
2022/03/29 07:44:02;;;;;;;7.30;6.68;;;19.90;36.60;;;;;;6218615;23;20242;-71
2022/03/29 07:46:29;;;;;;;7.30;6.60;;;20.00;36.70;;;;;;6192757;23;20690;-71
2022/03/29 07:48:56;;;;;;;7.40;6.68;;;20.00;36.40;;;;;;6192774;23;20195;-71
2022/03/29 07:51:23;;;;;;;10.32;6.90;;;20.10;36.80;;;;;;6219629;23;20195;-71
2022/03/29 07:53:52;;;;;;;9.40;6.80;;;20.10;36.70;;;;;;6192946;23;20583;-70
2022/03/29 07:56:19;;;;;;;7.43;6.72;;;20.20;36.90;;;;;;6192850;23;20178;-71
2022/03/29 07:58:46;;;;;;;9.32;7.22;;;20.20;36.20;;;;;;6222776;23;20750;-73
2022/03/29 08:01:13;;;;;;;7.50;6.70;;;20.20;36.20;;;;;;6193350;23;20171;-73
2022/03/29 08:03:42;;;;;;;8.73;6.43;;;20.30;36.20;;;;;;6193341;23;20175;-71
2022/03/29 08:06:09;;;;;;;7.95;6.85;;;20.40;36.20;;;;;;6193581;23;20186;-70
2022/03/29 08:08:36;;;;;;;7.60;6.57;;;20.50;35.90;;;;;;6193433;23;20246;-70
2022/03/29 08:11:05;;;;;;;7.57;6.78;;;20.60;35.90;;;;;;6193317;23;20622;-70
2022/03/29 08:13:32;;;;;;;7.28;6.57;;;20.60;35.40;;;;;;6194361;23;20514;-70
2022/03/29 08:16:01;;;;;;;8.10;6.55;;;20.70;35.30;;;;;;6196809;23;20619;-70
2022/03/29 08:18:28;;;;;;;7.38;6.68;;;20.70;35.20;;;;;;6199092;23;20640;-70
2022/03/29 08:20:56;;;;;;;7.65;6.85;;;20.80;35.10;;;;;;6193295;23;20175;-70
2022/03/29 08:23:23;;;;;;;7.53;6.70;;;20.90;35.00;;;;;;6193299;23;20674;-70
2022/03/29 08:25:50;;;;;;;7.28;6.55;;;21.00;34.90;;;;;;6193015;23;20175;-70
2022/03/29 08:28:19;;;;;;;8.95;6.63;;;21.00;34.70;;;;;;6193918;23;20191;-70
2022/03/29 08:30:47;;;;;;;7.20;6.50;;;21.10;34.50;;;;;;6193042;23;20175;-70
2022/03/29 08:33:14;;;;;;;7.65;6.95;;;21.20;34.70;;;;;;6219179;23;20167;-69
2022/03/29 08:35:44;;;;;;;8.35;6.70;;;21.20;34.50;;;;;;6192684;23;20645;-70
2022/03/29 08:38:11;;;;;;;7.45;6.75;;;21.30;34.60;;;;;;6204145;22;20195;-65
2022/03/29 08:40:39;;;;;;;7.65;6.85;;;21.30;34.20;;;;;;6222765;23;20176;-66
2022/03/29 08:43:08;;;;;;;9.00;6.70;;;21.30;34.30;;;;;;6211695;23;20195;-65
2022/03/29 08:45:37;;;;;;;7.80;6.80;;;21.30;34.40;;;;;;6192778;23;20175;-65
2022/03/29 08:48:04;;;;;;;8.57;6.80;;;21.30;34.10;;;;;;6194111;23;20515;-65
2022/03/29 08:50:36;;;;;;;9.05;7.60;;;21.30;34.00;;;;;;6195154;23;20179;-65
2022/03/29 08:53:03;;;;;;;8.32;7.28;;;21.30;33.90;;;;;;6192405;23;20198;-65
2022/03/29 08:55:31;;;;;;;8.05;7.25;;;21.30;34.00;;;;;;6190702;23;20176;-65
2022/03/29 08:57:58;;;;;;;8.00;7.20;;;21.30;34.00;;;;;;6190864;23;20203;-65
2022/03/29 09:00:26;;;;;;;7.85;7.03;;;21.30;34.10;;;;;;6191157;23;20576;-65
2022/03/29 09:02:55;;;;;;;7.38;6.68;;;21.30;34.00;;;;;;6190859;23;20187;-65
2022/03/29 09:05:23;;;;;;;7.90;7.00;;;21.20;34.10;;;;;;6191227;23;20186;-67
2022/03/29 09:07:52;;;;;;;8.07;7.20;;;21.20;34.10;;;;;;6190965;23;20214;-67
2022/03/29 09:10:20;;;;;;;8.20;7.40;;;21.20;34.30;;;;;;6217828;23;20649;-67
2022/03/29 09:12:47;;;;;;;8.50;6.80;;;21.20;34.20;;;;;;6191353;23;20266;-67
2022/03/29 09:15:14;;;;;;;7.95;6.60;;;21.20;34.20;;;;;;6190936;23;20171;-67
2022/03/29 09:17:42;;;;;;;8.90;6.95;;;21.30;34.40;;;;;;6217372;23;20210;-67
2022/03/29 09:20:12;;;;;;;7.32;6.65;;;21.40;34.50;;;;;;6190540;23;20175;-67
2022/03/29 09:22:42;;;;;;;8.18;7.20;;;21.40;34.30;;;;;;6190731;23;20191;-65
2022/03/29 09:25:11;;;;;;;7.97;6.63;;;21.50;34.20;;;;;;6190589;23;20179;-65
2022/03/29 09:27:52;;;;;;;8.15;7.05;;;21.60;34.30;;;;;;6217754;23;20610;-65
2022/03/29 09:30:20;;;;;;;7.90;7.20;;;21.60;34.10;;;;;;6190594;23;20270;-65
2022/03/29 09:32:56;;;;;;;8.25;6.90;;;21.70;33.90;;;;;;6194843;23;20719;-67
2022/03/29 09:35:25;;;;;;;7.88;6.97;;;21.80;33.90;;;;;;6196974;23;20178;-67
2022/03/29 09:37:53;;;;;;;8.68;7.68;;;21.80;33.70;;;;;;6198546;23;20334;-67
2022/03/29 09:40:20;;;;;;;8.27;7.47;;;21.90;33.60;;;;;;6195748;23;20250;-68
2022/03/29 09:43:11;;;;;;;8.43;7.60;;;22.00;33.60;;;;;;6216967;23;20646;-67
2022/03/29 09:45:56;;;;;;;9.68;7.82;;;22.00;33.60;;;;;;6190408;23;20626;-68
2022/03/29 09:48:32;;;;;;;8.50;7.53;;;22.10;33.30;;;;;;6217312;23;20148;-67
2022/03/29 09:51:18;;;;;;;8.93;7.88;;;22.20;33.50;;;;;;6191694;23;20263;-68
2022/03/29 09:53:46;;;;;;;8.65;7.85;;;22.20;32.80;;;;;;6217146;23;20190;-67
2022/03/29 09:56:15;;;;;;;8.65;7.75;;;22.30;32.70;;;;;;6190855;23;20207;-67
2022/03/29 09:58:42;;;;;;;9.95;8.20;;;22.30;32.60;;;;;;6217401;23;20183;-67
2022/03/29 10:01:26;;;;;;;9.10;8.20;;;22.40;32.60;;;;;;6190458;23;20178;-67
2022/03/29 10:03:54;;;;;;;9.25;8.23;;;22.40;32.50;;;;;;6190343;23;20195;-67
2022/03/29 10:06:24;;;;;;;9.02;7.28;;;22.40;32.50;;;;;;6217018;23;20212;-67
2022/03/29 10:11:37;;;;;;;8.32;7.22;;;22.40;32.50;;;;;;6217368;23;20152;-67
2022/03/29 10:14:06;;;;;;;7.65;6.85;;;22.40;32.60;;;;;;6190490;23;20225;-67
2022/03/29 10:16:33;;;;;;;8.50;7.70;;;22.40;32.60;;;;;;6191509;23;20178;-67
2022/03/29 10:19:00;;;;;;;10.70;7.70;;;22.50;32.80;;;;;;6218034;23;20190;-67
2022/03/29 10:21:29;;;;;;;8.70;7.78;;;22.50;32.90;;;;;;6190913;23;20174;-67
2022/03/29 10:23:56;;;;;;;11.23;9.15;;;22.50;32.80;;;;;;6217413;23;20218;-67
2022/03/29 10:26:24;;;;;;;11.13;8.38;;;22.50;32.90;;;;;;6217527;23;20187;-66
2022/03/29 10:28:52;;;;;;;8.00;7.20;;;22.50;32.80;;;;;;6190691;23;20176;-65
2022/03/29 10:31:33;;;;;;;9.35;7.40;;;22.50;32.70;;;;;;6190421;23;20180;-67
2022/03/29 10:34:14;;;;;;;8.60;7.50;;;22.50;32.80;;;;;;6190363;23;20722;-67
2022/03/29 10:37:04;;;;;;;8.82;7.47;;;22.50;32.90;;;;;;6217228;23;20158;-67
2022/03/29 10:39:56;;;;;;;7.80;7.00;;;22.50;32.90;;;;;;6189975;23;20203;-68
2022/03/29 10:42:25;;;;;;;7.25;6.55;;;22.40;33.80;;;;;;6190396;23;20179;-67
2022/03/29 10:45:06;;;;;;;7.90;7.15;;;22.40;33.40;;;;;;6216791;23;20160;-68
2022/03/29 10:47:33;;;;;;;7.90;6.95;;;22.40;33.40;;;;;;6190803;23;20697;-65
2022/03/29 10:50:00;;;;;;;8.13;6.63;;;22.40;33.40;;;;;;6216915;23;20177;-65
2022/03/29 10:52:31;;;;;;;6.05;5.45;;;22.40;33.40;;;;;;6189740;23;20168;-65
2022/03/29 10:55:21;;;;;;;7.70;6.57;;;22.40;33.40;;;;;;6216812;23;20552;-65
2022/03/29 10:58:09;;;;;;;6.65;6.05;;;22.40;33.40;;;;;;6189765;23;20526;-66
2022/03/29 11:00:36;;;;;;;5.93;5.40;;;22.40;33.40;;;;;;6216549;23;20596;-66
2022/03/29 11:03:20;;;;;;;6.95;6.25;;;22.40;34.40;;;;;;6216295;23;20265;-65
2022/03/29 11:06:07;;;;;;;6.18;5.57;;;22.40;33.50;;;;;;6216233;23;20162;-65
2022/03/29 11:08:36;;;;;;;6.60;6.00;;;22.40;33.90;;;;;;6190041;23;20709;-65
2022/03/29 11:11:03;;;;;;;6.55;5.93;;;22.40;33.90;;;;;;6189523;23;20167;-65
2022/03/29 11:13:31;;;;;;;6.03;5.47;;;22.40;33.70;;;;;;6189554;23;20200;-65
2022/03/29 11:16:02;;;;;;;6.75;6.05;;;22.40;33.70;;;;;;6189638;23;20664;-65
2022/03/29 11:18:50;;;;;;;6.38;5.78;;;22.40;33.70;;;;;;6188971;23;20187;-65
2022/03/29 11:21:40;;;;;;;6.22;5.63;;;22.40;33.60;;;;;;6216623;23;20551;-66
2022/03/29 11:24:15;;;;;;;6.10;5.53;;;22.40;33.70;;;;;;6189537;23;20219;-66
2022/03/29 11:26:59;;;;;;;6.13;5.38;;;22.50;33.80;;;;;;6217082;23;20152;-65
2022/03/29 11:29:26;;;;;;;5.95;5.43;;;22.50;34.00;;;;;;6189817;23;20172;-65
2022/03/29 11:31:56;;;;;;;6.20;5.60;;;22.40;33.90;;;;;;6216330;23;20241;-65
2022/03/29 11:34:23;;;;;;;6.35;5.82;;;22.40;33.90;;;;;;6190298;23;20241;-65
2022/03/29 11:36:51;;;;;;;6.28;5.70;;;22.40;34.00;;;;;;6189725;23;20175;-65
2022/03/29 11:39:27;;;;;;;6.32;5.72;;;22.50;33.90;;;;;;6215986;23;20215;-65
2022/03/29 11:41:57;;;;;;;5.78;5.18;;;22.50;34.00;;;;;;6189673;23;20171;-65
2022/03/29 11:44:25;;;;;;;6.75;6.10;;;22.50;34.00;;;;;;6189564;23;20195;-65
2022/03/29 11:46:54;;;;;;;6.15;5.55;;;22.50;34.00;;;;;;6216543;23;20191;-65
2022/03/29 11:49:22;;;;;;;6.18;5.45;;;22.50;33.90;;;;;;6189788;23;20168;-65
2022/03/29 11:52:07;;;;;;;7.93;5.93;;;22.50;34.00;;;;;;6189430;23;20245;-66
2022/03/29 11:54:46;;;;;;;5.78;5.28;;;22.50;34.00;;;;;;6189495;23;20661;-65
2022/03/29 11:57:22;;;;;;;5.75;5.25;;;22.50;34.00;;;;;;6189774;23;20175;-65
2022/03/29 11:59:49;;;;;;;5.80;5.30;;;22.50;34.00;;;;;;6189504;23;20195;-65
2022/03/29 12:02:18;;;;;;;6.25;5.65;;;22.50;34.00;;;;;;6189242;23;20175;-65
2022/03/29 12:04:47;;;;;;;5.97;5.32;;;22.50;34.00;;;;;;6189401;23;20179;-65
2022/03/29 12:07:14;;;;;;;5.95;5.35;;;22.50;34.00;;;;;;6189353;23;20195;-65
2022/03/29 12:09:47;;;;;;;6.75;5.50;;;22.50;34.10;;;;;;6215617;23;20175;-66
2022/03/29 12:12:15;;;;;;;5.85;5.25;;;22.50;34.00;;;;;;6216046;23;20605;-66
2022/03/29 12:14:42;;;;;;;5.57;5.07;;;22.50;34.00;;;;;;6189763;23;20495;-65
2022/03/29 12:17:09;;;;;;;5.75;5.25;;;22.50;34.10;;;;;;6189229;23;20182;-65
2022/03/29 12:19:37;;;;;;;6.68;5.20;;;22.50;34.10;;;;;;6189202;23;20195;-65
2022/03/29 12:22:06;;;;;;;5.90;5.40;;;22.50;34.10;;;;;;6189132;23;20199;-66
2022/03/29 12:24:34;;;;;;;5.90;5.35;;;22.60;34.20;;;;;;6189254;23;20195;-65
2022/03/29 12:27:04;;;;;;;6.28;5.68;;;22.60;34.10;;;;;;6216199;23;20194;-65
2022/03/29 12:29:32;;;;;;;5.63;5.20;;;22.60;34.10;;;;;;6216459;23;20148;-66
2022/03/29 12:32:01;;;;;;;5.38;4.97;;;22.60;34.20;;;;;;6191199;23;20571;-65
2022/03/29 12:34:29;;;;;;;5.63;5.18;;;22.60;34.10;;;;;;6191246;23;20230;-65
2022/03/29 12:36:58;;;;;;;5.80;5.30;;;22.60;34.10;;;;;;6191574;23;20176;-66
2022/03/29 12:39:31;;;;;;;5.35;4.90;;;22.60;34.10;;;;;;6218286;23;20183;-65
2022/03/29 12:41:58;;;;;;;5.93;5.40;;;22.50;34.00;;;;;;6218521;23;20167;-66
2022/03/29 12:44:37;;;;;;;5.85;5.35;;;22.60;34.10;;;;;;6191834;23;20218;-65
2022/03/29 12:47:05;;;;;;;6.00;5.47;;;22.60;34.10;;;;;;6218696;23;20156;-66
2022/03/29 12:49:32;;;;;;;5.60;5.10;;;22.60;34.10;;;;;;6218624;23;20164;-66
2022/03/29 12:52:01;;;;;;;5.55;5.05;;;22.60;34.10;;;;;;6218796;23;20247;-66
2022/03/29 12:54:36;;;;;;;5.55;5.05;;;22.60;34.10;;;;;;6218577;23;20205;-65
2022/03/29 12:57:04;;;;;;;5.90;5.40;;;22.60;34.20;;;;;;6192142;23;20175;-65
2022/03/29 12:59:34;;;;;;;5.53;5.03;;;22.60;34.10;;;;;;6191911;23;20416;-65
2022/03/29 13:02:10;;;;;;;5.75;5.15;;;22.60;34.30;;;;;;6219192;23;20210;-65
2022/03/29 13:04:39;;;;;;;6.18;5.57;;;22.60;34.30;;;;;;6192231;23;20243;-65